sensor_id;sensor_type;location;lat;lon;timestamp;P1;durP1;ratioP1;P2;durP2;ratioP2
32172;SDS011;18679;45.190;5.722;2024-02-26T00:02:50;0.30;;;0.10;;
32172;SDS011;18679;45.190;5.722;2024-02-26T00:05:52;0.00;;;0.00;;
32172;SDS011;18679;45.190;5.722;2024-02-26T00:08:56;0.20;;;0.20;;
32172;SDS011;18679;45.190;5.722;2024-02-26T00:11:57;0.43;;;0.20;;
32172;SDS011;18679;45.190;5.722;2024-02-26T00:14:59;0.10;;;0.10;;
32172;SDS011;18679;45.190;5.722;2024-02-26T00:18:01;0.17;;;0.10;;
32172;SDS011;18679;45.190;5.722;2024-02-26T00:21:02;0.00;;;0.00;;
32172;SDS011;18679;45.190;5.722;2024-02-26T00:24:03;0.00;;;0.00;;
32172;SDS011;18679;45.190;5.722;2024-02-26T00:27:04;0.05;;;0.05;;
32172;SDS011;18679;45.190;5.722;2024-02-26T00:30:05;0.43;;;0.32;;
32172;SDS011;18679;45.190;5.722;2024-02-26T00:33:07;0.10;;;0.10;;
32172;SDS011;18679;45.190;5.722;2024-02-26T00:36:08;0.80;;;0.00;;
32172;SDS011;18679;45.190;5.722;2024-02-26T00:39:10;0.00;;;0.00;;
32172;SDS011;18679;45.190;5.722;2024-02-26T00:42:12;0.63;;;0.10;;
32172;SDS011;18679;45.190;5.722;2024-02-26T00:45:13;0.20;;;0.10;;
32172;SDS011;18679;45.190;5.722;2024-02-26T00:48:14;0.00;;;0.00;;
32172;SDS011;18679;45.190;5.722;2024-02-26T00:51:15;0.28;;;0.10;;
32172;SDS011;18679;45.190;5.722;2024-02-26T00:54:18;0.10;;;0.10;;
32172;SDS011;18679;45.190;5.722;2024-02-26T00:57:19;0.10;;;0.10;;
32172;SDS011;18679;45.190;5.722;2024-02-26T01:00:20;0.00;;;0.00;;
32172;SDS011;18679;45.190;5.722;2024-02-26T01:03:36;0.10;;;0.10;;
32172;SDS011;18679;45.190;5.722;2024-02-26T01:06:37;0.00;;;0.00;;
32172;SDS011;18679;45.190;5.722;2024-02-26T01:09:38;0.00;;;0.00;;
32172;SDS011;18679;45.190;5.722;2024-02-26T01:12:40;0.00;;;0.00;;
32172;SDS011;18679;45.190;5.722;2024-02-26T01:15:43;0.10;;;0.10;;
32172;SDS011;18679;45.190;5.722;2024-02-26T01:18:44;0.10;;;0.10;;
32172;SDS011;18679;45.190;5.722;2024-02-26T01:21:45;0.88;;;0.30;;
32172;SDS011;18679;45.190;5.722;2024-02-26T01:24:45;0.35;;;0.05;;
32172;SDS011;18679;45.190;5.722;2024-02-26T01:27:46;0.00;;;0.00;;
32172;SDS011;18679;45.190;5.722;2024-02-26T01:30:49;0.30;;;0.10;;
32172;SDS011;18679;45.190;5.722;2024-02-26T01:33:50;0.03;;;0.03;;
32172;SDS011;18679;45.190;5.722;2024-02-26T01:36:51;0.00;;;0.00;;
32172;SDS011;18679;45.190;5.722;2024-02-26T01:39:53;0.10;;;0.10;;
32172;SDS011;18679;45.190;5.722;2024-02-26T01:42:55;0.00;;;0.00;;
32172;SDS011;18679;45.190;5.722;2024-02-26T01:45:56;0.08;;;0.05;;
32172;SDS011;18679;45.190;5.722;2024-02-26T01:48:59;0.03;;;0.03;;
32172;SDS011;18679;45.190;5.722;2024-02-26T01:52:01;0.00;;;0.00;;
32172;SDS011;18679;45.190;5.722;2024-02-26T01:55:04;0.00;;;0.00;;
32172;SDS011;18679;45.190;5.722;2024-02-26T01:58:05;0.08;;;0.08;;
32172;SDS011;18679;45.190;5.722;2024-02-26T02:01:06;0.03;;;0.03;;
32172;SDS011;18679;45.190;5.722;2024-02-26T02:04:10;0.03;;;0.03;;
32172;SDS011;18679;45.190;5.722;2024-02-26T02:07:11;0.47;;;0.20;;
32172;SDS011;18679;45.190;5.722;2024-02-26T02:10:15;1.27;;;0.10;;
32172;SDS011;18679;45.190;5.722;2024-02-26T02:13:18;0.52;;;0.10;;
32172;SDS011;18679;45.190;5.722;2024-02-26T02:16:19;0.00;;;0.00;;
32172;SDS011;18679;45.190;5.722;2024-02-26T02:19:20;0.10;;;0.10;;
32172;SDS011;18679;45.190;5.722;2024-02-26T02:22:20;0.05;;;0.05;;
32172;SDS011;18679;45.190;5.722;2024-02-26T02:25:22;0.22;;;0.13;;
32172;SDS011;18679;45.190;5.722;2024-02-26T02:28:23;0.28;;;0.13;;
32172;SDS011;18679;45.190;5.722;2024-02-26T02:31:26;0.00;;;0.00;;
32172;SDS011;18679;45.190;5.722;2024-02-26T02:34:28;0.00;;;0.00;;
32172;SDS011;18679;45.190;5.722;2024-02-26T02:37:29;0.77;;;0.20;;
32172;SDS011;18679;45.190;5.722;2024-02-26T02:40:31;2.50;;;0.20;;
32172;SDS011;18679;45.190;5.722;2024-02-26T02:43:32;0.10;;;0.10;;
32172;SDS011;18679;45.190;5.722;2024-02-26T02:46:33;0.00;;;0.00;;
32172;SDS011;18679;45.190;5.722;2024-02-26T02:49:35;0.10;;;0.10;;
32172;SDS011;18679;45.190;5.722;2024-02-26T02:52:36;0.20;;;0.20;;
32172;SDS011;18679;45.190;5.722;2024-02-26T02:55:37;2.20;;;0.10;;
32172;SDS011;18679;45.190;5.722;2024-02-26T02:58:39;0.20;;;0.13;;
32172;SDS011;18679;45.190;5.722;2024-02-26T03:01:41;0.10;;;0.10;;
32172;SDS011;18679;45.190;5.722;2024-02-26T03:04:42;1.23;;;0.20;;
32172;SDS011;18679;45.190;5.722;2024-02-26T03:07:42;0.17;;;0.17;;
32172;SDS011;18679;45.190;5.722;2024-02-26T03:10:44;0.03;;;0.03;;
32172;SDS011;18679;45.190;5.722;2024-02-26T03:13:45;0.43;;;0.20;;
32172;SDS011;18679;45.190;5.722;2024-02-26T03:16:46;0.10;;;0.10;;
32172;SDS011;18679;45.190;5.722;2024-02-26T03:19:47;0.10;;;0.10;;
32172;SDS011;18679;45.190;5.722;2024-02-26T03:22:53;0.25;;;0.17;;
32172;SDS011;18679;45.190;5.722;2024-02-26T03:25:54;0.75;;;0.35;;
32172;SDS011;18679;45.190;5.722;2024-02-26T03:28:56;0.00;;;0.00;;
32172;SDS011;18679;45.190;5.722;2024-02-26T03:31:57;0.85;;;0.10;;
32172;SDS011;18679;45.190;5.722;2024-02-26T03:34:57;0.10;;;0.10;;
32172;SDS011;18679;45.190;5.722;2024-02-26T03:37:58;1.25;;;0.22;;
32172;SDS011;18679;45.190;5.722;2024-02-26T03:40:59;1.50;;;0.20;;
32172;SDS011;18679;45.190;5.722;2024-02-26T03:44:01;0.10;;;0.10;;
32172;SDS011;18679;45.190;5.722;2024-02-26T03:47:03;0.60;;;0.30;;
32172;SDS011;18679;45.190;5.722;2024-02-26T03:50:04;0.65;;;0.22;;
32172;SDS011;18679;45.190;5.722;2024-02-26T03:53:05;1.55;;;0.25;;
32172;SDS011;18679;45.190;5.722;2024-02-26T03:56:09;0.20;;;0.20;;
32172;SDS011;18679;45.190;5.722;2024-02-26T03:59:13;0.30;;;0.13;;
32172;SDS011;18679;45.190;5.722;2024-02-26T04:02:14;0.75;;;0.22;;
32172;SDS011;18679;45.190;5.722;2024-02-26T04:05:16;0.75;;;0.30;;
32172;SDS011;18679;45.190;5.722;2024-02-26T04:08:17;1.08;;;0.38;;
32172;SDS011;18679;45.190;5.722;2024-02-26T04:11:18;2.90;;;0.32;;
32172;SDS011;18679;45.190;5.722;2024-02-26T04:14:20;0.10;;;0.10;;
32172;SDS011;18679;45.190;5.722;2024-02-26T04:17:22;0.30;;;0.30;;
32172;SDS011;18679;45.190;5.722;2024-02-26T04:20:35;0.35;;;0.28;;
32172;SDS011;18679;45.190;5.722;2024-02-26T04:28:00;0.30;;;0.30;;
32172;SDS011;18679;45.190;5.722;2024-02-26T04:31:01;0.10;;;0.10;;
32172;SDS011;18679;45.190;5.722;2024-02-26T04:34:02;0.90;;;0.22;;
32172;SDS011;18679;45.190;5.722;2024-02-26T04:37:03;0.30;;;0.30;;
32172;SDS011;18679;45.190;5.722;2024-02-26T04:40:04;0.30;;;0.30;;
32172;SDS011;18679;45.190;5.722;2024-02-26T04:43:06;1.85;;;0.20;;
32172;SDS011;18679;45.190;5.722;2024-02-26T04:46:07;0.10;;;0.10;;
32172;SDS011;18679;45.190;5.722;2024-02-26T04:49:09;0.60;;;0.20;;
32172;SDS011;18679;45.190;5.722;2024-02-26T04:52:10;0.77;;;0.13;;
32172;SDS011;18679;45.190;5.722;2024-02-26T04:55:11;1.52;;;0.45;;
32172;SDS011;18679;45.190;5.722;2024-02-26T04:58:12;0.45;;;0.30;;
32172;SDS011;18679;45.190;5.722;2024-02-26T05:01:13;0.38;;;0.22;;
32172;SDS011;18679;45.190;5.722;2024-02-26T05:04:16;2.17;;;0.30;;
32172;SDS011;18679;45.190;5.722;2024-02-26T05:07:17;0.22;;;0.22;;
32172;SDS011;18679;45.190;5.722;2024-02-26T05:10:18;0.22;;;0.20;;
32172;SDS011;18679;45.190;5.722;2024-02-26T05:13:19;0.30;;;0.22;;
32172;SDS011;18679;45.190;5.722;2024-02-26T05:16:20;1.08;;;0.55;;
32172;SDS011;18679;45.190;5.722;2024-02-26T05:19:24;0.10;;;0.10;;
32172;SDS011;18679;45.190;5.722;2024-02-26T05:22:25;0.68;;;0.40;;
32172;SDS011;18679;45.190;5.722;2024-02-26T05:25:26;0.38;;;0.28;;
32172;SDS011;18679;45.190;5.722;2024-02-26T05:28:27;0.30;;;0.30;;
32172;SDS011;18679;45.190;5.722;2024-02-26T05:31:28;2.53;;;0.30;;
32172;SDS011;18679;45.190;5.722;2024-02-26T05:34:32;0.40;;;0.30;;
32172;SDS011;18679;45.190;5.722;2024-02-26T05:37:34;0.43;;;0.20;;
32172;SDS011;18679;45.190;5.722;2024-02-26T05:40:35;0.30;;;0.28;;
32172;SDS011;18679;45.190;5.722;2024-02-26T05:43:37;0.90;;;0.63;;
32172;SDS011;18679;45.190;5.722;2024-02-26T05:46:38;1.73;;;0.50;;
32172;SDS011;18679;45.190;5.722;2024-02-26T05:49:39;0.20;;;0.20;;
32172;SDS011;18679;45.190;5.722;2024-02-26T05:52:40;5.68;;;0.55;;
32172;SDS011;18679;45.190;5.722;2024-02-26T05:55:41;0.10;;;0.10;;
32172;SDS011;18679;45.190;5.722;2024-02-26T05:58:43;0.45;;;0.43;;
32172;SDS011;18679;45.190;5.722;2024-02-26T06:01:44;0.82;;;0.47;;
32172;SDS011;18679;45.190;5.722;2024-02-26T06:04:45;1.27;;;0.52;;
32172;SDS011;18679;45.190;5.722;2024-02-26T06:07:49;1.50;;;0.47;;
32172;SDS011;18679;45.190;5.722;2024-02-26T06:10:49;0.93;;;0.50;;
32172;SDS011;18679;45.190;5.722;2024-02-26T06:13:52;0.95;;;0.43;;
32172;SDS011;18679;45.190;5.722;2024-02-26T06:16:53;0.50;;;0.40;;
32172;SDS011;18679;45.190;5.722;2024-02-26T06:19:55;0.50;;;0.40;;
32172;SDS011;18679;45.190;5.722;2024-02-26T06:22:56;0.50;;;0.47;;
32172;SDS011;18679;45.190;5.722;2024-02-26T06:25:58;2.13;;;0.60;;
32172;SDS011;18679;45.190;5.722;2024-02-26T06:28:59;0.63;;;0.43;;
32172;SDS011;18679;45.190;5.722;2024-02-26T06:32:00;1.65;;;0.52;;
32172;SDS011;18679;45.190;5.722;2024-02-26T06:35:01;1.10;;;0.35;;
32172;SDS011;18679;45.190;5.722;2024-02-26T06:38:01;0.40;;;0.38;;
32172;SDS011;18679;45.190;5.722;2024-02-26T06:41:02;0.20;;;0.20;;
32172;SDS011;18679;45.190;5.722;2024-02-26T06:44:05;0.45;;;0.40;;
32172;SDS011;18679;45.190;5.722;2024-02-26T06:47:07;0.63;;;0.55;;
32172;SDS011;18679;45.190;5.722;2024-02-26T06:50:08;2.15;;;0.77;;
32172;SDS011;18679;45.190;5.722;2024-02-26T06:53:11;1.38;;;0.70;;
32172;SDS011;18679;45.190;5.722;2024-02-26T06:56:12;0.70;;;0.47;;
32172;SDS011;18679;45.190;5.722;2024-02-26T06:59:14;1.92;;;0.73;;
32172;SDS011;18679;45.190;5.722;2024-02-26T07:02:16;11.27;;;1.10;;
32172;SDS011;18679;45.190;5.722;2024-02-26T07:05:18;1.52;;;0.50;;
32172;SDS011;18679;45.190;5.722;2024-02-26T07:08:19;1.40;;;0.63;;
32172;SDS011;18679;45.190;5.722;2024-02-26T07:11:21;1.80;;;1.00;;
32172;SDS011;18679;45.190;5.722;2024-02-26T07:14:23;0.60;;;0.52;;
32172;SDS011;18679;45.190;5.722;2024-02-26T07:17:25;1.58;;;0.60;;
32172;SDS011;18679;45.190;5.722;2024-02-26T07:20:25;0.98;;;0.77;;
32172;SDS011;18679;45.190;5.722;2024-02-26T07:23:28;0.60;;;0.60;;
32172;SDS011;18679;45.190;5.722;2024-02-26T07:26:29;1.15;;;0.80;;
32172;SDS011;18679;45.190;5.722;2024-02-26T07:29:31;1.35;;;0.73;;
32172;SDS011;18679;45.190;5.722;2024-02-26T07:36:35;1.73;;;1.08;;
32172;SDS011;18679;45.190;5.722;2024-02-26T07:39:36;2.30;;;0.93;;
32172;SDS011;18679;45.190;5.722;2024-02-26T07:42:37;0.60;;;0.60;;
32172;SDS011;18679;45.190;5.722;2024-02-26T07:45:38;0.70;;;0.50;;
32172;SDS011;18679;45.190;5.722;2024-02-26T07:48:38;5.22;;;1.00;;
32172;SDS011;18679;45.190;5.722;2024-02-26T07:51:39;1.77;;;1.08;;
32172;SDS011;18679;45.190;5.722;2024-02-26T07:54:42;2.05;;;0.90;;
32172;SDS011;18679;45.190;5.722;2024-02-26T07:57:43;2.65;;;0.80;;
32172;SDS011;18679;45.190;5.722;2024-02-26T08:00:44;1.20;;;0.80;;
32172;SDS011;18679;45.190;5.722;2024-02-26T08:03:46;3.13;;;1.13;;
32172;SDS011;18679;45.190;5.722;2024-02-26T08:06:47;5.00;;;1.60;;
32172;SDS011;18679;45.190;5.722;2024-02-26T08:09:48;11.10;;;1.50;;
32172;SDS011;18679;45.190;5.722;2024-02-26T08:12:49;0.98;;;0.57;;
32172;SDS011;18679;45.190;5.722;2024-02-26T08:15:51;0.98;;;0.70;;
32172;SDS011;18679;45.190;5.722;2024-02-26T08:18:53;6.65;;;1.58;;
32172;SDS011;18679;45.190;5.722;2024-02-26T08:21:54;5.00;;;1.20;;
32172;SDS011;18679;45.190;5.722;2024-02-26T08:24:56;2.63;;;0.98;;
32172;SDS011;18679;45.190;5.722;2024-02-26T08:27:57;1.88;;;0.90;;
32172;SDS011;18679;45.190;5.722;2024-02-26T08:30:58;1.52;;;0.90;;
32172;SDS011;18679;45.190;5.722;2024-02-26T08:33:59;8.23;;;1.63;;
32172;SDS011;18679;45.190;5.722;2024-02-26T08:37:00;2.53;;;0.82;;
32172;SDS011;18679;45.190;5.722;2024-02-26T08:40:01;7.60;;;1.08;;
32172;SDS011;18679;45.190;5.722;2024-02-26T08:43:04;2.05;;;0.90;;
32172;SDS011;18679;45.190;5.722;2024-02-26T08:46:08;1.23;;;1.00;;
32172;SDS011;18679;45.190;5.722;2024-02-26T08:49:10;2.15;;;1.92;;
32172;SDS011;18679;45.190;5.722;2024-02-26T08:52:11;12.18;;;1.02;;
32172;SDS011;18679;45.190;5.722;2024-02-26T08:55:12;7.05;;;1.73;;
32172;SDS011;18679;45.190;5.722;2024-02-26T08:58:14;2.08;;;1.27;;
32172;SDS011;18679;45.190;5.722;2024-02-26T09:01:14;6.72;;;1.30;;
32172;SDS011;18679;45.190;5.722;2024-02-26T09:04:15;4.88;;;1.00;;
32172;SDS011;18679;45.190;5.722;2024-02-26T09:07:17;1.85;;;1.25;;
32172;SDS011;18679;45.190;5.722;2024-02-26T09:10:19;1.92;;;1.13;;
32172;SDS011;18679;45.190;5.722;2024-02-26T09:13:20;14.13;;;1.70;;
32172;SDS011;18679;45.190;5.722;2024-02-26T09:16:21;6.25;;;1.80;;
32172;SDS011;18679;45.190;5.722;2024-02-26T09:19:22;1.77;;;1.25;;
32172;SDS011;18679;45.190;5.722;2024-02-26T09:22:23;3.17;;;1.67;;
32172;SDS011;18679;45.190;5.722;2024-02-26T09:25:24;7.75;;;2.05;;
32172;SDS011;18679;45.190;5.722;2024-02-26T09:28:25;10.80;;;1.85;;
32172;SDS011;18679;45.190;5.722;2024-02-26T09:31:26;6.32;;;2.20;;
32172;SDS011;18679;45.190;5.722;2024-02-26T09:34:27;3.90;;;1.60;;
32172;SDS011;18679;45.190;5.722;2024-02-26T09:37:29;4.85;;;2.05;;
32172;SDS011;18679;45.190;5.722;2024-02-26T09:40:30;3.55;;;1.67;;
32172;SDS011;18679;45.190;5.722;2024-02-26T09:43:36;4.22;;;1.83;;
32172;SDS011;18679;45.190;5.722;2024-02-26T09:46:42;3.13;;;1.17;;
32172;SDS011;18679;45.190;5.722;2024-02-26T09:49:44;6.60;;;2.45;;
32172;SDS011;18679;45.190;5.722;2024-02-26T09:52:47;1.58;;;1.15;;
32172;SDS011;18679;45.190;5.722;2024-02-26T09:55:48;4.97;;;1.50;;
32172;SDS011;18679;45.190;5.722;2024-02-26T09:58:50;10.52;;;2.83;;
32172;SDS011;18679;45.190;5.722;2024-02-26T10:01:55;30.00;;;3.97;;
32172;SDS011;18679;45.190;5.722;2024-02-26T10:05:02;15.85;;;5.38;;
32172;SDS011;18679;45.190;5.722;2024-02-26T10:08:06;2.20;;;1.35;;
32172;SDS011;18679;45.190;5.722;2024-02-26T10:11:12;24.70;;;3.75;;
32172;SDS011;18679;45.190;5.722;2024-02-26T10:14:14;15.63;;;2.17;;
32172;SDS011;18679;45.190;5.722;2024-02-26T10:17:19;9.10;;;2.47;;
32172;SDS011;18679;45.190;5.722;2024-02-26T10:20:21;8.13;;;2.90;;
32172;SDS011;18679;45.190;5.722;2024-02-26T10:23:26;6.82;;;2.00;;
32172;SDS011;18679;45.190;5.722;2024-02-26T10:26:27;4.07;;;1.30;;
32172;SDS011;18679;45.190;5.722;2024-02-26T10:29:28;1.63;;;0.70;;
32172;SDS011;18679;45.190;5.722;2024-02-26T10:32:30;4.22;;;0.80;;
32172;SDS011;18679;45.190;5.722;2024-02-26T10:35:31;6.53;;;2.75;;
32172;SDS011;18679;45.190;5.722;2024-02-26T10:38:34;2.10;;;0.98;;
32172;SDS011;18679;45.190;5.722;2024-02-26T10:41:36;2.53;;;1.30;;
32172;SDS011;18679;45.190;5.722;2024-02-26T10:44:37;5.57;;;1.42;;
32172;SDS011;18679;45.190;5.722;2024-02-26T10:47:43;11.95;;;3.75;;
32172;SDS011;18679;45.190;5.722;2024-02-26T10:50:45;4.22;;;1.42;;
32172;SDS011;18679;45.190;5.722;2024-02-26T10:53:48;6.07;;;2.30;;
32172;SDS011;18679;45.190;5.722;2024-02-26T10:56:57;18.50;;;7.05;;
32172;SDS011;18679;45.190;5.722;2024-02-26T11:00:00;4.35;;;1.50;;
32172;SDS011;18679;45.190;5.722;2024-02-26T11:03:04;4.57;;;1.88;;
32172;SDS011;18679;45.190;5.722;2024-02-26T11:06:07;5.63;;;1.98;;
32172;SDS011;18679;45.190;5.722;2024-02-26T11:09:10;2.45;;;1.27;;
32172;SDS011;18679;45.190;5.722;2024-02-26T11:16:36;1.35;;;0.85;;
32172;SDS011;18679;45.190;5.722;2024-02-26T11:19:39;8.50;;;1.80;;
32172;SDS011;18679;45.190;5.722;2024-02-26T11:22:44;6.95;;;2.88;;
32172;SDS011;18679;45.190;5.722;2024-02-26T11:25:45;6.05;;;1.30;;
32172;SDS011;18679;45.190;5.722;2024-02-26T11:28:47;2.17;;;1.20;;
32172;SDS011;18679;45.190;5.722;2024-02-26T11:31:50;1.85;;;0.68;;
32172;SDS011;18679;45.190;5.722;2024-02-26T11:34:53;1.10;;;0.60;;
32172;SDS011;18679;45.190;5.722;2024-02-26T11:37:55;8.85;;;3.15;;
32172;SDS011;18679;45.190;5.722;2024-02-26T11:40:57;6.80;;;2.65;;
32172;SDS011;18679;45.190;5.722;2024-02-26T11:44:00;7.05;;;2.40;;
32172;SDS011;18679;45.190;5.722;2024-02-26T11:47:12;2.47;;;1.38;;
32172;SDS011;18679;45.190;5.722;2024-02-26T11:53:38;1.55;;;0.80;;
32172;SDS011;18679;45.190;5.722;2024-02-26T11:56:49;3.50;;;1.70;;
32172;SDS011;18679;45.190;5.722;2024-02-26T11:59:50;5.50;;;1.80;;
32172;SDS011;18679;45.190;5.722;2024-02-26T12:02:52;1.80;;;1.02;;
32172;SDS011;18679;45.190;5.722;2024-02-26T12:06:01;4.85;;;2.45;;
32172;SDS011;18679;45.190;5.722;2024-02-26T12:09:02;0.52;;;0.43;;
32172;SDS011;18679;45.190;5.722;2024-02-26T12:12:09;0.77;;;0.50;;
32172;SDS011;18679;45.190;5.722;2024-02-26T12:15:11;3.25;;;1.30;;
32172;SDS011;18679;45.190;5.722;2024-02-26T12:18:16;3.28;;;0.70;;
32172;SDS011;18679;45.190;5.722;2024-02-26T12:21:18;0.95;;;0.60;;
32172;SDS011;18679;45.190;5.722;2024-02-26T12:24:23;1.75;;;1.20;;
32172;SDS011;18679;45.190;5.722;2024-02-26T12:27:25;8.32;;;3.08;;
32172;SDS011;18679;45.190;5.722;2024-02-26T12:30:29;2.50;;;1.40;;
32172;SDS011;18679;45.190;5.722;2024-02-26T12:33:34;1.00;;;0.77;;
32172;SDS011;18679;45.190;5.722;2024-02-26T12:36:35;0.75;;;0.30;;
32172;SDS011;18679;45.190;5.722;2024-02-26T12:39:38;0.38;;;0.30;;
32172;SDS011;18679;45.190;5.722;2024-02-26T12:42:40;0.35;;;0.35;;
32172;SDS011;18679;45.190;5.722;2024-02-26T12:45:45;0.90;;;0.50;;
32172;SDS011;18679;45.190;5.722;2024-02-26T12:48:47;0.73;;;0.50;;
32172;SDS011;18679;45.190;5.722;2024-02-26T12:51:51;0.73;;;0.68;;
32172;SDS011;18679;45.190;5.722;2024-02-26T12:54:53;0.70;;;0.43;;
32172;SDS011;18679;45.190;5.722;2024-02-26T12:57:54;1.33;;;0.32;;
32172;SDS011;18679;45.190;5.722;2024-02-26T13:00:57;0.65;;;0.30;;
32172;SDS011;18679;45.190;5.722;2024-02-26T13:04:00;3.30;;;0.20;;
32172;SDS011;18679;45.190;5.722;2024-02-26T13:07:07;1.13;;;0.28;;
32172;SDS011;18679;45.190;5.722;2024-02-26T13:10:09;1.30;;;0.60;;
32172;SDS011;18679;45.190;5.722;2024-02-26T13:13:15;0.80;;;0.47;;
32172;SDS011;18679;45.190;5.722;2024-02-26T13:16:18;0.25;;;0.25;;
32172;SDS011;18679;45.190;5.722;2024-02-26T13:19:20;1.52;;;0.68;;
32172;SDS011;18679;45.190;5.722;2024-02-26T13:22:21;0.15;;;0.15;;
32172;SDS011;18679;45.190;5.722;2024-02-26T13:25:23;0.20;;;0.20;;
32172;SDS011;18679;45.190;5.722;2024-02-26T13:28:24;1.20;;;0.80;;
32172;SDS011;18679;45.190;5.722;2024-02-26T13:31:29;0.50;;;0.43;;
32172;SDS011;18679;45.190;5.722;2024-02-26T13:34:31;0.75;;;0.40;;
32172;SDS011;18679;45.190;5.722;2024-02-26T13:37:33;1.27;;;0.40;;
32172;SDS011;18679;45.190;5.722;2024-02-26T13:40:35;0.52;;;0.38;;
32172;SDS011;18679;45.190;5.722;2024-02-26T13:43:36;0.65;;;0.50;;
32172;SDS011;18679;45.190;5.722;2024-02-26T13:46:37;2.58;;;0.55;;
32172;SDS011;18679;45.190;5.722;2024-02-26T13:49:39;2.88;;;0.52;;
32172;SDS011;18679;45.190;5.722;2024-02-26T13:52:41;0.38;;;0.38;;
32172;SDS011;18679;45.190;5.722;2024-02-26T13:55:44;4.43;;;0.60;;
32172;SDS011;18679;45.190;5.722;2024-02-26T13:58:46;2.22;;;0.55;;
32172;SDS011;18679;45.190;5.722;2024-02-26T14:01:48;0.68;;;0.57;;
32172;SDS011;18679;45.190;5.722;2024-02-26T14:04:49;0.40;;;0.30;;
32172;SDS011;18679;45.190;5.722;2024-02-26T14:07:50;0.75;;;0.47;;
32172;SDS011;18679;45.190;5.722;2024-02-26T14:10:50;0.98;;;0.38;;
32172;SDS011;18679;45.190;5.722;2024-02-26T14:13:53;0.90;;;0.50;;
32172;SDS011;18679;45.190;5.722;2024-02-26T14:16:53;7.53;;;0.85;;
32172;SDS011;18679;45.190;5.722;2024-02-26T14:19:56;0.63;;;0.40;;
32172;SDS011;18679;45.190;5.722;2024-02-26T14:22:58;4.38;;;0.65;;
32172;SDS011;18679;45.190;5.722;2024-02-26T14:25:59;0.57;;;0.30;;
32172;SDS011;18679;45.190;5.722;2024-02-26T14:29:01;4.70;;;0.90;;
32172;SDS011;18679;45.190;5.722;2024-02-26T14:32:03;0.95;;;0.57;;
32172;SDS011;18679;45.190;5.722;2024-02-26T14:35:06;1.00;;;0.40;;
32172;SDS011;18679;45.190;5.722;2024-02-26T14:38:07;2.63;;;0.32;;
32172;SDS011;18679;45.190;5.722;2024-02-26T14:41:08;0.52;;;0.32;;
32172;SDS011;18679;45.190;5.722;2024-02-26T14:44:12;6.55;;;0.60;;
32172;SDS011;18679;45.190;5.722;2024-02-26T14:47:13;0.30;;;0.30;;
32172;SDS011;18679;45.190;5.722;2024-02-26T14:50:14;2.05;;;0.70;;
32172;SDS011;18679;45.190;5.722;2024-02-26T14:53:17;0.45;;;0.28;;
32172;SDS011;18679;45.190;5.722;2024-02-26T14:56:19;0.80;;;0.30;;
32172;SDS011;18679;45.190;5.722;2024-02-26T14:59:20;0.82;;;0.20;;
32172;SDS011;18679;45.190;5.722;2024-02-26T15:02:22;0.43;;;0.30;;
32172;SDS011;18679;45.190;5.722;2024-02-26T15:05:23;2.50;;;0.40;;
32172;SDS011;18679;45.190;5.722;2024-02-26T15:08:24;7.03;;;0.45;;
32172;SDS011;18679;45.190;5.722;2024-02-26T15:11:26;0.88;;;0.57;;
32172;SDS011;18679;45.190;5.722;2024-02-26T15:14:27;2.17;;;0.45;;
32172;SDS011;18679;45.190;5.722;2024-02-26T15:17:28;1.00;;;0.43;;
32172;SDS011;18679;45.190;5.722;2024-02-26T15:20:32;1.02;;;0.45;;
32172;SDS011;18679;45.190;5.722;2024-02-26T15:23:33;1.50;;;0.60;;
32172;SDS011;18679;45.190;5.722;2024-02-26T15:26:35;4.38;;;0.47;;
32172;SDS011;18679;45.190;5.722;2024-02-26T15:29:37;0.90;;;0.40;;
32172;SDS011;18679;45.190;5.722;2024-02-26T15:32:39;4.25;;;0.60;;
32172;SDS011;18679;45.190;5.722;2024-02-26T15:35:41;3.15;;;0.50;;
32172;SDS011;18679;45.190;5.722;2024-02-26T15:38:45;1.05;;;0.47;;
32172;SDS011;18679;45.190;5.722;2024-02-26T15:41:46;2.00;;;0.65;;
32172;SDS011;18679;45.190;5.722;2024-02-26T15:44:47;5.40;;;0.73;;
32172;SDS011;18679;45.190;5.722;2024-02-26T15:47:48;5.30;;;0.93;;
32172;SDS011;18679;45.190;5.722;2024-02-26T15:50:49;1.73;;;0.40;;
32172;SDS011;18679;45.190;5.722;2024-02-26T15:53:50;0.30;;;0.30;;
32172;SDS011;18679;45.190;5.722;2024-02-26T15:56:53;1.30;;;0.38;;
32172;SDS011;18679;45.190;5.722;2024-02-26T15:59:55;1.00;;;0.38;;
32172;SDS011;18679;45.190;5.722;2024-02-26T16:03:01;1.00;;;0.40;;
32172;SDS011;18679;45.190;5.722;2024-02-26T16:06:03;0.88;;;0.35;;
32172;SDS011;18679;45.190;5.722;2024-02-26T16:09:05;0.80;;;0.40;;
32172;SDS011;18679;45.190;5.722;2024-02-26T16:12:13;1.35;;;0.45;;
32172;SDS011;18679;45.190;5.722;2024-02-26T16:15:18;0.70;;;0.40;;
32172;SDS011;18679;45.190;5.722;2024-02-26T16:18:21;1.30;;;0.50;;
32172;SDS011;18679;45.190;5.722;2024-02-26T16:21:22;6.10;;;0.40;;
32172;SDS011;18679;45.190;5.722;2024-02-26T16:24:26;1.60;;;0.35;;
32172;SDS011;18679;45.190;5.722;2024-02-26T16:27:28;0.77;;;0.50;;
32172;SDS011;18679;45.190;5.722;2024-02-26T16:30:28;0.30;;;0.30;;
32172;SDS011;18679;45.190;5.722;2024-02-26T16:33:29;2.83;;;0.50;;
32172;SDS011;18679;45.190;5.722;2024-02-26T16:36:30;2.85;;;0.52;;
32172;SDS011;18679;45.190;5.722;2024-02-26T16:39:31;0.95;;;0.50;;
32172;SDS011;18679;45.190;5.722;2024-02-26T16:42:39;2.03;;;0.45;;
32172;SDS011;18679;45.190;5.722;2024-02-26T16:45:40;1.15;;;0.63;;
32172;SDS011;18679;45.190;5.722;2024-02-26T16:48:42;2.00;;;0.80;;
32172;SDS011;18679;45.190;5.722;2024-02-26T16:51:43;3.67;;;0.57;;
32172;SDS011;18679;45.190;5.722;2024-02-26T16:54:44;2.95;;;0.85;;
32172;SDS011;18679;45.190;5.722;2024-02-26T16:57:50;3.28;;;0.68;;
32172;SDS011;18679;45.190;5.722;2024-02-26T17:00:50;4.63;;;1.00;;
32172;SDS011;18679;45.190;5.722;2024-02-26T17:03:52;1.00;;;0.70;;
32172;SDS011;18679;45.190;5.722;2024-02-26T17:06:53;4.47;;;1.27;;
32172;SDS011;18679;45.190;5.722;2024-02-26T17:09:55;1.90;;;0.52;;
32172;SDS011;18679;45.190;5.722;2024-02-26T17:12:56;1.85;;;0.80;;
32172;SDS011;18679;45.190;5.722;2024-02-26T17:15:57;1.73;;;0.70;;
32172;SDS011;18679;45.190;5.722;2024-02-26T17:18:57;2.15;;;0.60;;
32172;SDS011;18679;45.190;5.722;2024-02-26T17:21:59;3.40;;;0.80;;
32172;SDS011;18679;45.190;5.722;2024-02-26T17:24:59;3.85;;;1.08;;
32172;SDS011;18679;45.190;5.722;2024-02-26T17:28:02;2.13;;;0.95;;
32172;SDS011;18679;45.190;5.722;2024-02-26T17:31:03;1.17;;;0.50;;
32172;SDS011;18679;45.190;5.722;2024-02-26T17:34:04;1.45;;;0.70;;
32172;SDS011;18679;45.190;5.722;2024-02-26T17:37:04;1.65;;;0.80;;
32172;SDS011;18679;45.190;5.722;2024-02-26T17:40:06;5.28;;;1.30;;
32172;SDS011;18679;45.190;5.722;2024-02-26T17:43:08;4.72;;;0.77;;
32172;SDS011;18679;45.190;5.722;2024-02-26T17:46:09;3.10;;;1.50;;
32172;SDS011;18679;45.190;5.722;2024-02-26T17:49:12;6.50;;;1.40;;
32172;SDS011;18679;45.190;5.722;2024-02-26T17:52:13;1.73;;;1.00;;
32172;SDS011;18679;45.190;5.722;2024-02-26T17:55:17;4.65;;;1.08;;
32172;SDS011;18679;45.190;5.722;2024-02-26T17:58:21;5.50;;;1.33;;
32172;SDS011;18679;45.190;5.722;2024-02-26T18:01:22;2.10;;;0.80;;
32172;SDS011;18679;45.190;5.722;2024-02-26T18:04:23;4.70;;;1.38;;
32172;SDS011;18679;45.190;5.722;2024-02-26T18:07:24;7.82;;;1.00;;
32172;SDS011;18679;45.190;5.722;2024-02-26T18:10:25;5.38;;;1.40;;
32172;SDS011;18679;45.190;5.722;2024-02-26T18:13:27;5.35;;;1.50;;
32172;SDS011;18679;45.190;5.722;2024-02-26T18:16:28;2.08;;;1.30;;
32172;SDS011;18679;45.190;5.722;2024-02-26T18:19:30;3.97;;;1.23;;
32172;SDS011;18679;45.190;5.722;2024-02-26T18:22:33;2.85;;;1.58;;
32172;SDS011;18679;45.190;5.722;2024-02-26T18:25:34;7.60;;;2.08;;
32172;SDS011;18679;45.190;5.722;2024-02-26T18:28:35;4.30;;;1.38;;
32172;SDS011;18679;45.190;5.722;2024-02-26T18:31:36;7.20;;;1.83;;
32172;SDS011;18679;45.190;5.722;2024-02-26T18:34:39;5.63;;;2.00;;